createdAt,value
2019-02-19T00:03:54.993Z,4.21
2019-02-19T00:09:00.280Z,4.11
2019-02-19T00:14:05.498Z,3.96
2019-02-19T00:19:10.832Z,3.95
2019-02-19T00:24:16.101Z,3.94
2019-02-19T00:29:21.397Z,3.88
2019-02-19T00:34:26.481Z,3.80
2019-02-19T00:39:31.572Z,3.75
2019-02-19T00:44:36.913Z,3.59
2019-02-19T00:49:42.475Z,3.47
2019-02-19T00:54:47.944Z,3.50
2019-02-19T00:59:53.588Z,3.38
2019-02-19T01:04:59.986Z,3.35
2019-02-19T01:10:07.097Z,3.42
2019-02-19T01:15:12.449Z,3.25
2019-02-19T01:20:18.010Z,3.13
2019-02-19T01:25:23.213Z,3.25
2019-02-19T01:30:28.569Z,3.19
2019-02-19T01:35:33.935Z,3.06
2019-02-19T01:40:39.140Z,3.10
2019-02-19T01:45:45.239Z,3.03
2019-02-19T01:50:50.391Z,3.06
2019-02-19T01:55:55.699Z,3.10
2019-02-19T02:01:01.199Z,3.14
2019-02-19T02:06:06.548Z,3.08
2019-02-19T02:11:11.704Z,3.06
2019-02-19T02:16:17.053Z,2.96
2019-02-19T02:21:22.322Z,2.88
2019-02-19T02:26:27.570Z,2.97
2019-02-19T02:31:33.346Z,2.84
2019-02-19T02:36:38.804Z,2.80
2019-02-19T02:41:44.207Z,2.77
2019-02-19T02:46:49.541Z,2.78
2019-02-19T02:51:54.775Z,2.73
2019-02-19T02:57:00.247Z,2.71
2019-02-19T03:02:05.601Z,2.48
2019-02-19T03:07:12.526Z,2.48
2019-02-19T03:12:17.892Z,2.50
2019-02-19T03:17:23.115Z,2.59
2019-02-19T03:22:29.609Z,2.54
2019-02-19T03:27:35.048Z,2.55
2019-02-19T03:32:40.431Z,2.54
2019-02-19T03:37:45.688Z,2.45
2019-02-19T03:42:51.048Z,2.36
2019-02-19T03:47:56.480Z,2.31
2019-02-19T03:53:01.945Z,2.29
2019-02-19T03:58:07.612Z,2.24
2019-02-19T04:03:12.877Z,2.22
2019-02-19T04:08:18.228Z,2.10
2019-02-19T04:13:23.726Z,2.05
2019-02-19T04:18:29.044Z,1.99
2019-02-19T04:23:34.615Z,1.90
2019-02-19T04:28:40.288Z,1.85
2019-02-19T04:33:45.638Z,1.76
2019-02-19T04:38:50.795Z,1.83
2019-02-19T04:43:56.060Z,1.87
2019-02-19T04:49:01.581Z,1.91
2019-02-19T04:54:06.927Z,2.01
2019-02-19T04:59:12.285Z,2.08
2019-02-19T05:04:17.481Z,2.11
2019-02-19T05:09:22.828Z,2.13
2019-02-19T05:14:28.095Z,2.20
2019-02-19T05:19:33.875Z,2.22
2019-02-19T05:24:39.330Z,2.24
2019-02-19T05:29:44.583Z,2.29
2019-02-19T05:34:50.050Z,2.45
2019-02-19T05:39:55.414Z,2.21
2019-02-19T05:45:00.818Z,2.33
2019-02-19T05:50:08.601Z,2.53
2019-02-19T05:55:13.942Z,2.59
2019-02-19T06:00:20.428Z,2.54
2019-02-19T06:05:25.774Z,2.59
2019-02-19T06:10:31.027Z,2.57
2019-02-19T06:15:36.396Z,2.74
2019-02-19T06:20:41.855Z,2.58
2019-02-19T06:25:48.027Z,2.52
2019-02-19T06:30:53.204Z,2.50
2019-02-19T06:35:58.545Z,2.63
2019-02-19T06:41:04.531Z,2.55
2019-02-19T06:46:09.993Z,2.67
2019-02-19T06:51:15.373Z,2.83
2019-02-19T06:56:20.724Z,2.89
2019-02-19T07:01:27.910Z,3.01
2019-02-19T07:06:33.007Z,3.31
2019-02-19T07:11:38.307Z,3.68
2019-02-19T07:16:43.668Z,3.97
2019-02-19T07:21:48.819Z,4.19
2019-02-19T07:26:54.587Z,4.28
2019-02-19T07:31:59.952Z,4.19
2019-02-19T07:37:05.305Z,4.35
2019-02-19T07:42:10.397Z,4.53
2019-02-19T07:47:24.262Z,4.54
2019-02-19T07:52:22.517Z,4.52
2019-02-19T07:57:27.963Z,4.54
2019-02-19T08:02:33.437Z,4.76
2019-02-19T08:07:39.001Z,5.06
2019-02-19T08:12:44.366Z,5.49
2019-02-19T08:17:49.725Z,5.89
2019-02-19T08:22:54.900Z,6.20
2019-02-19T08:28:00.241Z,6.50
2019-02-19T08:33:05.633Z,6.79
2019-02-19T08:38:10.762Z,7.04
2019-02-19T08:43:16.779Z,7.26
2019-02-19T08:48:21.972Z,7.68
2019-02-19T08:53:27.321Z,8.06
2019-02-19T08:58:32.584Z,8.15
2019-02-19T09:03:37.841Z,8.06
2019-02-19T09:08:43.441Z,7.93
2019-02-19T09:13:48.824Z,7.91
2019-02-19T09:18:54.439Z,7.96
2019-02-19T09:23:59.683Z,8.14
2019-02-19T09:29:05.057Z,8.29
2019-02-19T09:34:10.541Z,8.51
2019-02-19T09:39:16.173Z,8.57
2019-02-19T09:44:21.631Z,8.80
2019-02-19T09:49:26.989Z,8.95
2019-02-19T09:54:32.444Z,9.36
2019-02-19T09:59:37.708Z,9.58
2019-02-19T10:04:43.276Z,9.62
2019-02-19T10:09:48.641Z,9.92
2019-02-19T10:14:54.092Z,10.10
2019-02-19T10:19:59.740Z,10.10
2019-02-19T10:25:11.907Z,10.33
2019-02-19T10:30:20.862Z,10.35
2019-02-19T10:35:26.380Z,10.50
2019-02-19T10:40:31.941Z,10.53
2019-02-19T10:45:37.416Z,10.49
2019-02-19T10:50:42.558Z,10.50
2019-02-19T10:55:47.640Z,10.57
2019-02-19T11:00:53.071Z,10.69
2019-02-19T11:05:58.631Z,10.84
2019-02-19T11:11:03.887Z,10.74
2019-02-19T11:16:09.013Z,10.75
2019-02-19T11:21:19.488Z,10.88
2019-02-19T11:26:21.417Z,11.09
2019-02-19T11:31:26.762Z,11.30
2019-02-19T11:36:32.123Z,11.43
2019-02-19T11:41:37.171Z,11.49
2019-02-19T11:46:42.441Z,11.68
2019-02-19T11:51:47.687Z,11.66
2019-02-19T11:56:53.040Z,11.55
2019-02-19T12:01:58.994Z,11.55
2019-02-19T12:07:04.375Z,11.51
2019-02-19T12:12:09.626Z,11.55
2019-02-19T12:17:14.894Z,11.39
2019-02-19T12:22:20.138Z,11.37
2019-02-19T12:27:25.393Z,11.35
2019-02-19T12:32:30.663Z,11.33
2019-02-19T12:37:36.041Z,11.32
2019-02-19T12:42:41.367Z,11.51
2019-02-19T12:47:46.652Z,11.63
2019-02-19T12:52:51.987Z,11.73
2019-02-19T12:57:57.763Z,11.51
2019-02-19T13:03:03.434Z,11.02
2019-02-19T13:08:08.685Z,10.61
2019-02-19T13:13:14.077Z,10.25
2019-02-19T13:18:19.294Z,10.07
2019-02-19T13:23:24.581Z,10.02
2019-02-19T13:28:30.838Z,9.71
2019-02-19T13:33:36.100Z,9.21
2019-02-19T13:38:41.453Z,9.21
2019-02-19T13:43:46.700Z,9.18
2019-02-19T13:48:52.276Z,9.11
2019-02-19T13:53:59.360Z,9.11
2019-02-19T13:59:04.827Z,9.01
2019-02-19T14:04:09.980Z,9.01
2019-02-19T14:09:15.455Z,8.87
2019-02-19T14:14:25.524Z,8.80
2019-02-19T14:19:47.668Z,8.84
2019-02-19T14:25:03.262Z,8.76
2019-02-19T14:30:27.859Z,8.69
2019-02-19T14:35:40.502Z,8.61
2019-02-19T14:41:03.472Z,8.63
2019-02-19T14:46:10.473Z,8.65
2019-02-19T14:51:26.481Z,8.63
2019-02-19T14:56:42.495Z,8.66
2019-02-19T15:02:05.914Z,8.67
2019-02-19T15:07:15.271Z,8.56
2019-02-19T15:12:40.547Z,8.48
2019-02-19T15:17:59.624Z,8.52
2019-02-19T15:23:24.157Z,8.49
2019-02-19T15:28:43.384Z,8.54
2019-02-19T15:34:07.106Z,8.48
2019-02-19T15:39:32.337Z,8.51
2019-02-19T15:44:48.134Z,8.53
2019-02-19T15:49:54.939Z,8.47
2019-02-19T15:55:18.318Z,8.43
2019-02-19T16:00:25.213Z,8.34
2019-02-19T16:05:34.871Z,8.36
2019-02-19T16:10:44.735Z,8.35
2019-02-19T16:16:09.761Z,8.35
2019-02-19T16:21:22.585Z,8.33
2019-02-19T16:26:35.430Z,8.32
2019-02-19T16:31:42.421Z,8.33
2019-02-19T16:36:49.510Z,8.32
2019-02-19T16:41:58.834Z,8.41
2019-02-19T16:47:08.628Z,8.30
2019-02-19T16:52:30.669Z,8.37
2019-02-19T16:57:46.583Z,8.34
2019-02-19T17:02:53.709Z,8.32
2019-02-19T17:08:00.877Z,8.35
2019-02-19T17:13:23.146Z,8.24
2019-02-19T17:18:45.212Z,8.14
2019-02-19T17:23:52.087Z,8.13
2019-02-19T17:29:05.131Z,8.11
2019-02-19T17:34:28.379Z,8.15
2019-02-19T17:39:39.699Z,8.08
2019-02-19T17:44:52.648Z,8.15
2019-02-19T17:50:05.265Z,8.18
2019-02-19T17:55:12.184Z,8.18
2019-02-19T18:00:19.278Z,8.23
2019-02-19T18:05:26.385Z,8.15
2019-02-19T18:10:39.398Z,8.15
2019-02-19T18:15:46.270Z,8.17
2019-02-19T18:20:51.323Z,8.15
2019-02-19T18:25:56.596Z,8.18
2019-02-19T18:31:01.917Z,8.18
2019-02-19T18:36:07.207Z,8.22
2019-02-19T18:41:12.299Z,8.14
2019-02-19T18:46:17.971Z,7.87
2019-02-19T18:51:23.201Z,7.79
2019-02-19T18:56:28.649Z,7.73
2019-02-19T19:01:34.017Z,7.67
2019-02-19T19:06:39.166Z,7.63
2019-02-19T19:11:44.419Z,7.56
2019-02-19T19:16:49.673Z,7.44
2019-02-19T19:21:55.237Z,7.48
2019-02-19T19:27:00.700Z,7.48
2019-02-19T19:32:05.924Z,7.44
2019-02-19T19:37:11.219Z,7.44
2019-02-19T19:42:16.561Z,7.43
2019-02-19T19:47:22.138Z,7.47
2019-02-19T19:52:27.492Z,7.31
2019-02-19T19:57:32.854Z,7.36
2019-02-19T20:02:39.447Z,7.38
2019-02-19T20:07:44.731Z,7.22
2019-02-19T20:12:49.950Z,7.14
2019-02-19T20:17:55.322Z,7.01
2019-02-19T20:23:00.577Z,6.97
2019-02-19T20:28:06.124Z,6.99
2019-02-19T20:33:11.538Z,6.98
2019-02-19T20:38:16.601Z,7.02
2019-02-19T20:43:21.909Z,7.02
2019-02-19T20:48:29.606Z,7.03
2019-02-19T20:53:34.975Z,7.12
2019-02-19T20:58:40.179Z,7.09
2019-02-19T21:03:45.503Z,7.06
2019-02-19T21:08:50.937Z,6.93
2019-02-19T21:13:56.182Z,6.78
2019-02-19T21:19:03.087Z,6.79
2019-02-19T21:24:08.536Z,6.78
2019-02-19T21:29:13.924Z,6.70
2019-02-19T21:34:19.576Z,6.74
2019-02-19T21:39:24.701Z,6.79
2019-02-19T21:44:30.414Z,6.78
2019-02-19T21:49:35.782Z,6.73
2019-02-19T21:54:41.214Z,6.71
2019-02-19T21:59:46.784Z,6.74
2019-02-19T22:04:52.499Z,6.80
2019-02-19T22:09:57.810Z,6.82
2019-02-19T22:15:03.374Z,6.83
2019-02-19T22:20:38.734Z,6.81
2019-02-19T22:25:43.964Z,6.89
2019-02-19T22:30:49.250Z,6.90
2019-02-19T22:35:54.463Z,6.89
2019-02-19T22:40:59.976Z,6.85
2019-02-19T22:46:05.232Z,6.87
2019-02-19T22:51:10.500Z,6.89
2019-02-19T22:56:17.679Z,6.91
2019-02-19T23:01:34.000Z,6.97
2019-02-19T23:06:39.361Z,6.92
2019-02-19T23:11:44.761Z,6.88
2019-02-19T23:16:50.079Z,6.90
2019-02-19T23:21:55.459Z,6.97
2019-02-19T23:27:02.113Z,7.10
2019-02-19T23:32:07.683Z,6.96
2019-02-19T23:37:13.252Z,7.00
2019-02-19T23:42:18.616Z,7.03
2019-02-19T23:47:23.969Z,6.98
2019-02-19T23:52:30.605Z,6.94
2019-02-19T23:57:36.015Z,6.88
